sensor_id;sensor_type;location;lat;lon;timestamp;pressure;altitude;pressure_sealevel;temperature;humidity
60479;BME280;46321;48.398;11.754;2024-03-02T00:00:49;95628.16;;;6.03;97.08
60479;BME280;46321;48.398;11.754;2024-03-02T00:03:15;95619.97;;;6.15;96.66
60479;BME280;46321;48.398;11.754;2024-03-02T00:05:40;95620.44;;;6.18;96.62
60479;BME280;46321;48.398;11.754;2024-03-02T00:08:06;95619.31;;;6.04;97.32
60479;BME280;46321;48.398;11.754;2024-03-02T00:10:37;95619.13;;;6.23;96.36
60479;BME280;46321;48.398;11.754;2024-03-02T00:13:04;95608.63;;;6.23;96.12
60479;BME280;46321;48.398;11.754;2024-03-02T00:17:55;95611.59;;;5.94;97.83
60479;BME280;46321;48.398;11.754;2024-03-02T00:20:22;95613.41;;;6.11;97.21
60479;BME280;46321;48.398;11.754;2024-03-02T00:22:48;95615.84;;;6.21;96.47
60479;BME280;46321;48.398;11.754;2024-03-02T00:25:14;95604.66;;;6.27;96.22
60479;BME280;46321;48.398;11.754;2024-03-02T00:27:39;95609.41;;;6.23;96.12
60479;BME280;46321;48.398;11.754;2024-03-02T00:30:51;95605.03;;;6.15;96.29
60479;BME280;46321;48.398;11.754;2024-03-02T00:33:20;95597.94;;;6.24;95.99
60479;BME280;46321;48.398;11.754;2024-03-02T00:35:46;95593.31;;;6.26;96.17
60479;BME280;46321;48.398;11.754;2024-03-02T00:38:12;95597.56;;;6.27;95.80
60479;BME280;46321;48.398;11.754;2024-03-02T00:40:37;95588.75;;;6.20;96.07
60479;BME280;46321;48.398;11.754;2024-03-02T00:43:03;95592.50;;;6.26;95.74
60479;BME280;46321;48.398;11.754;2024-03-02T00:45:28;95589.41;;;6.22;95.86
60479;BME280;46321;48.398;11.754;2024-03-02T00:47:54;95595.16;;;6.17;96.17
60479;BME280;46321;48.398;11.754;2024-03-02T00:50:19;95589.91;;;6.17;96.35
60479;BME280;46321;48.398;11.754;2024-03-02T00:52:46;95599.41;;;6.18;96.26
60479;BME280;46321;48.398;11.754;2024-03-02T00:55:13;95590.25;;;6.06;96.72
60479;BME280;46321;48.398;11.754;2024-03-02T00:57:38;95590.75;;;6.10;97.04
60479;BME280;46321;48.398;11.754;2024-03-02T01:00:04;95589.91;;;6.17;96.48
60479;BME280;46321;48.398;11.754;2024-03-02T01:02:33;95585.94;;;6.22;96.21
60479;BME280;46321;48.398;11.754;2024-03-02T01:04:58;95591.19;;;6.22;95.80
60479;BME280;46321;48.398;11.754;2024-03-02T01:07:24;95583.00;;;6.25;95.52
60479;BME280;46321;48.398;11.754;2024-03-02T01:09:49;95583.31;;;6.22;95.27
60479;BME280;46321;48.398;11.754;2024-03-02T01:12:14;95587.59;;;6.14;95.19
60479;BME280;46321;48.398;11.754;2024-03-02T01:14:40;95578.88;;;6.22;95.19
60479;BME280;46321;48.398;11.754;2024-03-02T01:17:05;95584.00;;;6.15;95.12
60479;BME280;46321;48.398;11.754;2024-03-02T01:19:30;95585.47;;;6.10;95.60
60479;BME280;46321;48.398;11.754;2024-03-02T01:21:55;95584.84;;;6.16;95.17
60479;BME280;46321;48.398;11.754;2024-03-02T01:24:21;95584.50;;;6.11;95.37
60479;BME280;46321;48.398;11.754;2024-03-02T01:26:46;95588.44;;;6.15;95.23
60479;BME280;46321;48.398;11.754;2024-03-02T01:29:11;95582.53;;;6.13;95.11
60479;BME280;46321;48.398;11.754;2024-03-02T01:31:36;95586.97;;;6.12;95.09
60479;BME280;46321;48.398;11.754;2024-03-02T01:34:02;95592.88;;;6.14;95.11
60479;BME280;46321;48.398;11.754;2024-03-02T01:36:27;95594.84;;;6.12;95.02
60479;BME280;46321;48.398;11.754;2024-03-02T01:38:52;95591.91;;;6.07;95.35
60479;BME280;46321;48.398;11.754;2024-03-02T01:41:17;95588.75;;;6.03;95.74
60479;BME280;46321;48.398;11.754;2024-03-02T01:43:43;95597.00;;;6.09;95.62
60479;BME280;46321;48.398;11.754;2024-03-02T01:46:08;95598.63;;;6.10;95.67
60479;BME280;46321;48.398;11.754;2024-03-02T01:48:34;95599.44;;;6.10;95.49
60479;BME280;46321;48.398;11.754;2024-03-02T01:50:59;95599.81;;;6.07;95.40
60479;BME280;46321;48.398;11.754;2024-03-02T01:53:24;95598.81;;;6.08;95.47
60479;BME280;46321;48.398;11.754;2024-03-02T01:55:50;95600.09;;;6.12;95.22
60479;BME280;46321;48.398;11.754;2024-03-02T01:58:16;95591.91;;;6.07;95.38
60479;BME280;46321;48.398;11.754;2024-03-02T02:00:41;95590.41;;;6.13;94.96
60479;BME280;46321;48.398;11.754;2024-03-02T02:03:06;95592.03;;;6.14;95.14
60479;BME280;46321;48.398;11.754;2024-03-02T02:05:32;95590.59;;;6.11;95.15
60479;BME280;46321;48.398;11.754;2024-03-02T02:07:57;95586.97;;;6.12;95.55
60479;BME280;46321;48.398;11.754;2024-03-02T02:10:23;95586.97;;;6.04;95.37
60479;BME280;46321;48.398;11.754;2024-03-02T02:12:48;95574.66;;;6.04;95.59
60479;BME280;46321;48.398;11.754;2024-03-02T02:15:27;95581.53;;;6.05;95.52
60479;BME280;46321;48.398;11.754;2024-03-02T02:17:54;95573.19;;;6.02;95.40
60479;BME280;46321;48.398;11.754;2024-03-02T02:20:19;95572.34;;;6.01;95.60
60479;BME280;46321;48.398;11.754;2024-03-02T02:23:01;95573.00;;;6.03;95.35
60479;BME280;46321;48.398;11.754;2024-03-02T02:25:28;95580.59;;;6.06;95.46
60479;BME280;46321;48.398;11.754;2024-03-02T02:27:54;95574.47;;;6.06;95.41
60479;BME280;46321;48.398;11.754;2024-03-02T02:30:25;95565.66;;;5.90;95.55
60479;BME280;46321;48.398;11.754;2024-03-02T02:32:51;95570.59;;;5.93;95.58
60479;BME280;46321;48.398;11.754;2024-03-02T02:35:17;95560.22;;;5.92;95.43
60479;BME280;46321;48.398;11.754;2024-03-02T02:37:43;95564.31;;;5.94;95.18
60479;BME280;46321;48.398;11.754;2024-03-02T02:40:08;95554.13;;;6.00;94.53
60479;BME280;46321;48.398;11.754;2024-03-02T02:42:34;95545.44;;;5.99;94.10
60479;BME280;46321;48.398;11.754;2024-03-02T02:44:59;95547.88;;;6.01;93.82
60479;BME280;46321;48.398;11.754;2024-03-02T02:47:25;95549.38;;;5.95;94.10
60479;BME280;46321;48.398;11.754;2024-03-02T02:49:51;95553.50;;;5.98;94.04
60479;BME280;46321;48.398;11.754;2024-03-02T02:52:16;95550.22;;;5.87;94.34
60479;BME280;46321;48.398;11.754;2024-03-02T02:54:41;95546.63;;;5.88;94.41
60479;BME280;46321;48.398;11.754;2024-03-02T02:57:06;95547.25;;;5.90;94.14
60479;BME280;46321;48.398;11.754;2024-03-02T02:59:31;95549.56;;;5.85;94.56
60479;BME280;46321;48.398;11.754;2024-03-02T03:01:57;95552.88;;;5.79;94.51
60479;BME280;46321;48.398;11.754;2024-03-02T03:04:22;95554.84;;;5.77;94.43
60479;BME280;46321;48.398;11.754;2024-03-02T03:06:47;95561.09;;;5.76;94.59
60479;BME280;46321;48.398;11.754;2024-03-02T03:09:12;95558.94;;;5.79;94.43
60479;BME280;46321;48.398;11.754;2024-03-02T03:11:38;95560.56;;;5.80;94.44
60479;BME280;46321;48.398;11.754;2024-03-02T03:14:03;95566.84;;;5.79;94.29
60479;BME280;46321;48.398;11.754;2024-03-02T03:16:30;95567.16;;;5.76;94.71
60479;BME280;46321;48.398;11.754;2024-03-02T03:18:55;95562.09;;;5.66;94.76
60479;BME280;46321;48.398;11.754;2024-03-02T03:21:20;95566.03;;;5.70;94.80
60479;BME280;46321;48.398;11.754;2024-03-02T03:23:46;95570.94;;;5.65;95.05
60479;BME280;46321;48.398;11.754;2024-03-02T03:26:11;95569.97;;;5.66;94.85
60479;BME280;46321;48.398;11.754;2024-03-02T03:28:36;95569.97;;;5.66;95.19
60479;BME280;46321;48.398;11.754;2024-03-02T03:31:02;95565.06;;;5.63;95.16
60479;BME280;46321;48.398;11.754;2024-03-02T03:33:28;95564.88;;;5.65;95.70
60479;BME280;46321;48.398;11.754;2024-03-02T03:35:53;95567.66;;;5.71;94.85
60479;BME280;46321;48.398;11.754;2024-03-02T03:38:19;95569.81;;;5.68;95.15
60479;BME280;46321;48.398;11.754;2024-03-02T03:40:44;95568.31;;;5.65;95.25
60479;BME280;46321;48.398;11.754;2024-03-02T03:43:10;95567.66;;;5.71;95.08
60479;BME280;46321;48.398;11.754;2024-03-02T03:45:35;95566.19;;;5.77;94.89
60479;BME280;46321;48.398;11.754;2024-03-02T03:48:02;95565.22;;;5.70;95.20
60479;BME280;46321;48.398;11.754;2024-03-02T03:50:27;95558.50;;;5.59;95.57
60479;BME280;46321;48.398;11.754;2024-03-02T03:52:52;95559.78;;;5.63;95.81
60479;BME280;46321;48.398;11.754;2024-03-02T03:55:18;95561.59;;;5.63;95.74
60479;BME280;46321;48.398;11.754;2024-03-02T03:57:43;95560.44;;;5.65;95.56
60479;BME280;46321;48.398;11.754;2024-03-02T04:00:08;95561.09;;;5.67;95.66
60479;BME280;46321;48.398;11.754;2024-03-02T04:02:35;95555.03;;;5.67;95.69
60479;BME280;46321;48.398;11.754;2024-03-02T04:05:01;95562.41;;;5.71;95.42
60479;BME280;46321;48.398;11.754;2024-03-02T04:07:30;95570.50;;;5.53;95.37
60479;BME280;46321;48.398;11.754;2024-03-02T04:09:55;95568.34;;;5.40;96.50
60479;BME280;46321;48.398;11.754;2024-03-02T04:12:20;95568.00;;;5.52;96.24
60479;BME280;46321;48.398;11.754;2024-03-02T04:14:45;95569.03;;;5.50;95.89
60479;BME280;46321;48.398;11.754;2024-03-02T04:17:11;95561.63;;;5.46;96.25
60479;BME280;46321;48.398;11.754;2024-03-02T04:19:36;95568.84;;;5.52;96.02
60479;BME280;46321;48.398;11.754;2024-03-02T04:22:02;95574.44;;;5.57;95.78
60479;BME280;46321;48.398;11.754;2024-03-02T04:24:27;95578.53;;;5.60;95.44
60479;BME280;46321;48.398;11.754;2024-03-02T04:26:52;95573.09;;;5.61;95.33
60479;BME280;46321;48.398;11.754;2024-03-02T04:29:17;95581.16;;;5.60;95.50
60479;BME280;46321;48.398;11.754;2024-03-02T04:31:43;95585.75;;;5.49;95.85
60479;BME280;46321;48.398;11.754;2024-03-02T04:34:09;95582.44;;;5.56;95.67
60479;BME280;46321;48.398;11.754;2024-03-02T04:36:34;95586.06;;;5.55;95.61
60479;BME280;46321;48.398;11.754;2024-03-02T04:38:59;95584.94;;;5.57;95.60
60479;BME280;46321;48.398;11.754;2024-03-02T04:41:24;95588.84;;;5.61;95.65
60479;BME280;46321;48.398;11.754;2024-03-02T04:43:50;95591.31;;;5.63;95.50
60479;BME280;46321;48.398;11.754;2024-03-02T04:46:15;95595.25;;;5.67;95.33
60479;BME280;46321;48.398;11.754;2024-03-02T04:48:40;95597.53;;;5.70;95.18
60479;BME280;46321;48.398;11.754;2024-03-02T04:51:05;95602.16;;;5.68;95.00
60479;BME280;46321;48.398;11.754;2024-03-02T04:53:31;95597.56;;;5.62;95.17
60479;BME280;46321;48.398;11.754;2024-03-02T04:55:56;95600.84;;;5.64;95.04
60479;BME280;46321;48.398;11.754;2024-03-02T04:58:40;95608.53;;;5.66;95.10
60479;BME280;46321;48.398;11.754;2024-03-02T05:01:05;95606.09;;;5.64;95.19
60479;BME280;46321;48.398;11.754;2024-03-02T05:03:31;95602.47;;;5.65;95.18
60479;BME280;46321;48.398;11.754;2024-03-02T05:05:56;95610.34;;;5.65;95.26
60479;BME280;46321;48.398;11.754;2024-03-02T05:08:21;95610.34;;;5.65;95.28
60479;BME280;46321;48.398;11.754;2024-03-02T05:10:46;95608.06;;;5.62;95.24
60479;BME280;46321;48.398;11.754;2024-03-02T05:13:12;95610.34;;;5.65;95.33
60479;BME280;46321;48.398;11.754;2024-03-02T05:15:37;95615.59;;;5.65;95.35
60479;BME280;46321;48.398;11.754;2024-03-02T05:18:02;95614.63;;;5.66;95.18
60479;BME280;46321;48.398;11.754;2024-03-02T05:20:30;95619.69;;;5.68;94.97
60479;BME280;46321;48.398;11.754;2024-03-02T05:22:55;95616.41;;;5.66;95.18
60479;BME280;46321;48.398;11.754;2024-03-02T05:25:21;95622.63;;;5.65;95.16
60479;BME280;46321;48.398;11.754;2024-03-02T05:27:46;95623.47;;;5.65;95.28
60479;BME280;46321;48.398;11.754;2024-03-02T05:30:11;95625.44;;;5.71;95.09
60479;BME280;46321;48.398;11.754;2024-03-02T05:32:36;95627.56;;;5.68;95.02
60479;BME280;46321;48.398;11.754;2024-03-02T05:35:02;95628.41;;;5.68;95.36
60479;BME280;46321;48.398;11.754;2024-03-02T05:37:28;95620.66;;;5.67;95.05
60479;BME280;46321;48.398;11.754;2024-03-02T05:39:53;95628.53;;;5.67;95.33
60479;BME280;46321;48.398;11.754;2024-03-02T05:42:19;95626.59;;;5.69;95.19
60479;BME280;46321;48.398;11.754;2024-03-02T05:44:44;95627.56;;;5.68;95.15
60479;BME280;46321;48.398;11.754;2024-03-02T05:47:09;95624.13;;;5.67;95.16
60479;BME280;46321;48.398;11.754;2024-03-02T05:49:35;95624.94;;;5.68;95.18
60479;BME280;46321;48.398;11.754;2024-03-02T05:52:00;95635.44;;;5.68;95.34
60479;BME280;46321;48.398;11.754;2024-03-02T05:54:25;95630.03;;;5.61;95.63
60479;BME280;46321;48.398;11.754;2024-03-02T05:56:51;95638.09;;;5.59;95.86
60479;BME280;46321;48.398;11.754;2024-03-02T05:59:16;95633.31;;;5.63;95.56
60479;BME280;46321;48.398;11.754;2024-03-02T06:01:43;95636.59;;;5.65;95.57
60479;BME280;46321;48.398;11.754;2024-03-02T06:04:09;95641.84;;;5.65;95.83
60479;BME280;46321;48.398;11.754;2024-03-02T06:06:36;95635.44;;;5.68;95.72
60479;BME280;46321;48.398;11.754;2024-03-02T06:09:02;95638.75;;;5.61;95.84
60479;BME280;46321;48.398;11.754;2024-03-02T06:11:30;95630.38;;;5.66;95.43
60479;BME280;46321;48.398;11.754;2024-03-02T06:13:55;95635.13;;;5.71;95.50
60479;BME280;46321;48.398;11.754;2024-03-02T06:16:21;95628.38;;;5.77;95.31
60479;BME280;46321;48.398;11.754;2024-03-02T06:18:46;95631.66;;;5.79;95.25
60479;BME280;46321;48.398;11.754;2024-03-02T06:21:12;95628.88;;;5.80;95.14
60479;BME280;46321;48.398;11.754;2024-03-02T06:23:37;95629.50;;;5.82;95.10
60479;BME280;46321;48.398;11.754;2024-03-02T06:26:02;95633.63;;;5.85;94.86
60479;BME280;46321;48.398;11.754;2024-03-02T06:28:28;95634.28;;;5.87;94.90
60479;BME280;46321;48.398;11.754;2024-03-02T06:30:54;95634.63;;;5.84;94.90
60479;BME280;46321;48.398;11.754;2024-03-02T06:33:19;95632.97;;;5.83;95.13
60479;BME280;46321;48.398;11.754;2024-03-02T06:35:44;95635.78;;;5.81;95.31
60479;BME280;46321;48.398;11.754;2024-03-02T06:38:09;95631.81;;;5.86;95.37
60479;BME280;46321;48.398;11.754;2024-03-02T06:40:35;95629.69;;;5.81;95.48
60479;BME280;46321;48.398;11.754;2024-03-02T06:43:02;95630.50;;;5.81;95.43
60479;BME280;46321;48.398;11.754;2024-03-02T06:45:28;95623.47;;;5.82;95.20
60479;BME280;46321;48.398;11.754;2024-03-02T06:47:55;95625.41;;;5.88;95.18
60479;BME280;46321;48.398;11.754;2024-03-02T06:50:21;95625.88;;;5.92;95.55
60479;BME280;46321;48.398;11.754;2024-03-02T06:52:46;95621.00;;;5.89;95.13
60479;BME280;46321;48.398;11.754;2024-03-02T06:55:12;95623.13;;;5.93;95.15
60479;BME280;46321;48.398;11.754;2024-03-02T06:57:37;95622.75;;;5.96;94.97
60479;BME280;46321;48.398;11.754;2024-03-02T07:00:02;95625.22;;;5.98;94.71
60479;BME280;46321;48.398;11.754;2024-03-02T07:02:30;95630.81;;;6.03;94.28
60479;BME280;46321;48.398;11.754;2024-03-02T07:04:55;95630.00;;;6.11;93.92
60479;BME280;46321;48.398;11.754;2024-03-02T07:07:21;95627.66;;;6.16;93.73
60479;BME280;46321;48.398;11.754;2024-03-02T07:09:46;95635.06;;;6.21;93.32
60479;BME280;46321;48.398;11.754;2024-03-02T07:12:12;95637.31;;;6.33;92.82
60479;BME280;46321;48.398;11.754;2024-03-02T07:14:38;95633.72;;;6.34;92.51
60479;BME280;46321;48.398;11.754;2024-03-02T07:17:21;95633.50;;;6.44;91.80
60479;BME280;46321;48.398;11.754;2024-03-02T07:19:47;95645.31;;;6.48;91.38
60479;BME280;46321;48.398;11.754;2024-03-02T07:22:12;95646.47;;;6.53;91.19
60479;BME280;46321;48.398;11.754;2024-03-02T07:24:44;95640.69;;;6.58;90.66
60479;BME280;46321;48.398;11.754;2024-03-02T07:27:11;95638.84;;;6.59;90.40
60479;BME280;46321;48.398;11.754;2024-03-02T07:29:37;95640.34;;;6.61;89.95
60479;BME280;46321;48.398;11.754;2024-03-02T07:32:03;95639.00;;;6.66;89.86
60479;BME280;46321;48.398;11.754;2024-03-02T07:34:29;95644.00;;;6.84;89.97
60479;BME280;46321;48.398;11.754;2024-03-02T07:36:55;95652.66;;;7.25;89.30
60479;BME280;46321;48.398;11.754;2024-03-02T07:39:20;95640.91;;;7.59;86.98
60479;BME280;46321;48.398;11.754;2024-03-02T07:41:46;95644.34;;;7.98;85.81
60479;BME280;46321;48.398;11.754;2024-03-02T07:44:11;95650.38;;;8.53;83.98
60479;BME280;46321;48.398;11.754;2024-03-02T07:46:40;95654.63;;;8.84;81.69
60479;BME280;46321;48.398;11.754;2024-03-02T07:49:05;95661.13;;;8.66;80.48
60479;BME280;46321;48.398;11.754;2024-03-02T07:51:31;95666.72;;;8.78;80.57
60479;BME280;46321;48.398;11.754;2024-03-02T07:53:56;95659.56;;;8.57;80.88
60479;BME280;46321;48.398;11.754;2024-03-02T07:56:21;95666.75;;;8.33;81.38
60479;BME280;46321;48.398;11.754;2024-03-02T07:58:48;95659.81;;;8.17;82.21
60479;BME280;46321;48.398;11.754;2024-03-02T08:01:14;95664.34;;;8.23;82.91
60479;BME280;46321;48.398;11.754;2024-03-02T08:03:40;95666.28;;;8.29;82.50
60479;BME280;46321;48.398;11.754;2024-03-02T08:06:05;95668.78;;;7.92;83.67
60479;BME280;46321;48.398;11.754;2024-03-02T08:08:31;95668.47;;;7.87;83.90
60479;BME280;46321;48.398;11.754;2024-03-02T08:10:56;95675.75;;;7.85;83.66
60479;BME280;46321;48.398;11.754;2024-03-02T08:13:21;95679.97;;;7.71;84.38
60479;BME280;46321;48.398;11.754;2024-03-02T08:15:47;95680.97;;;7.70;84.94
60479;BME280;46321;48.398;11.754;2024-03-02T08:18:12;95677.06;;;7.42;85.43
60479;BME280;46321;48.398;11.754;2024-03-02T08:20:37;95679.22;;;7.38;86.61
60479;BME280;46321;48.398;11.754;2024-03-02T08:23:03;95683.59;;;7.22;86.79
60479;BME280;46321;48.398;11.754;2024-03-02T08:25:29;95692.47;;;7.21;87.33
60479;BME280;46321;48.398;11.754;2024-03-02T08:27:54;95691.84;;;6.87;88.76
60479;BME280;46321;48.398;11.754;2024-03-02T08:30:19;95690.78;;;7.05;88.33
60479;BME280;46321;48.398;11.754;2024-03-02T08:32:44;95690.16;;;7.03;87.24
60479;BME280;46321;48.398;11.754;2024-03-02T08:35:12;95691.72;;;7.13;87.59
60479;BME280;46321;48.398;11.754;2024-03-02T08:37:39;95694.84;;;7.40;86.60
60479;BME280;46321;48.398;11.754;2024-03-02T08:40:07;95686.06;;;7.71;84.21
60479;BME280;46321;48.398;11.754;2024-03-02T08:42:32;95700.47;;;8.38;82.24
60479;BME280;46321;48.398;11.754;2024-03-02T08:44:58;95700.53;;;9.20;79.25
60479;BME280;46321;48.398;11.754;2024-03-02T08:47:26;95695.63;;;11.05;74.90
60479;BME280;46321;48.398;11.754;2024-03-02T08:49:51;95697.66;;;13.13;68.24
60479;BME280;46321;48.398;11.754;2024-03-02T08:52:16;95688.56;;;14.70;61.95
60479;BME280;46321;48.398;11.754;2024-03-02T08:54:42;95686.31;;;14.48;57.72
60479;BME280;46321;48.398;11.754;2024-03-02T08:57:07;95695.44;;;14.14;57.07
60479;BME280;46321;48.398;11.754;2024-03-02T08:59:32;95691.97;;;12.23;60.48
60479;BME280;46321;48.398;11.754;2024-03-02T09:01:58;95695.00;;;11.93;63.77
60479;BME280;46321;48.398;11.754;2024-03-02T09:04:24;95689.69;;;12.06;63.36
60479;BME280;46321;48.398;11.754;2024-03-02T09:06:49;95696.31;;;12.90;61.34
60479;BME280;46321;48.398;11.754;2024-03-02T09:09:14;95697.66;;;13.92;57.49
60479;BME280;46321;48.398;11.754;2024-03-02T09:11:40;95693.88;;;14.06;55.81
60479;BME280;46321;48.398;11.754;2024-03-02T09:14:05;95691.22;;;15.26;51.63
60479;BME280;46321;48.398;11.754;2024-03-02T09:16:30;95686.00;;;16.89;47.76
60479;BME280;46321;48.398;11.754;2024-03-02T09:18:56;95679.28;;;18.04;45.20
60479;BME280;46321;48.398;11.754;2024-03-02T09:21:22;95682.94;;;18.49;43.32
60479;BME280;46321;48.398;11.754;2024-03-02T09:23:47;95673.44;;;18.59;43.84
60479;BME280;46321;48.398;11.754;2024-03-02T09:26:13;95677.91;;;19.15;42.10
60479;BME280;46321;48.398;11.754;2024-03-02T09:28:42;95666.59;;;19.96;40.87
60479;BME280;46321;48.398;11.754;2024-03-02T09:31:08;95668.25;;;19.70;39.83
60479;BME280;46321;48.398;11.754;2024-03-02T09:33:33;95668.41;;;19.85;39.65
60479;BME280;46321;48.398;11.754;2024-03-02T09:35:58;95667.97;;;19.99;39.60
60479;BME280;46321;48.398;11.754;2024-03-02T09:38:24;95670.53;;;19.28;41.22
60479;BME280;46321;48.398;11.754;2024-03-02T09:40:49;95674.56;;;17.47;43.90
60479;BME280;46321;48.398;11.754;2024-03-02T09:43:14;95677.94;;;16.48;46.14
60479;BME280;46321;48.398;11.754;2024-03-02T09:45:39;95668.91;;;15.82;49.05
60479;BME280;46321;48.398;11.754;2024-03-02T09:48:05;95669.56;;;15.22;50.09
60479;BME280;46321;48.398;11.754;2024-03-02T09:50:30;95663.72;;;15.14;51.17
60479;BME280;46321;48.398;11.754;2024-03-02T09:52:56;95668.03;;;15.57;49.39
60479;BME280;46321;48.398;11.754;2024-03-02T09:55:21;95665.88;;;15.66;49.93
60479;BME280;46321;48.398;11.754;2024-03-02T09:57:47;95667.09;;;15.95;49.22
60479;BME280;46321;48.398;11.754;2024-03-02T10:00:16;95671.22;;;15.36;50.75
60479;BME280;46321;48.398;11.754;2024-03-02T10:02:42;95666.78;;;16.03;49.00
60479;BME280;46321;48.398;11.754;2024-03-02T10:05:08;95666.72;;;15.79;49.49
60479;BME280;46321;48.398;11.754;2024-03-02T10:07:34;95659.72;;;16.98;46.90
60479;BME280;46321;48.398;11.754;2024-03-02T10:10:12;95662.28;;;15.30;50.37
60479;BME280;46321;48.398;11.754;2024-03-02T10:12:39;95661.34;;;14.68;52.53
60479;BME280;46321;48.398;11.754;2024-03-02T10:15:04;95674.50;;;13.67;55.52
60479;BME280;46321;48.398;11.754;2024-03-02T10:17:31;95664.28;;;12.78;57.79
60479;BME280;46321;48.398;11.754;2024-03-02T10:19:56;95654.88;;;13.93;56.08
60479;BME280;46321;48.398;11.754;2024-03-02T10:22:23;95649.06;;;13.45;57.20
60479;BME280;46321;48.398;11.754;2024-03-02T10:24:48;95650.47;;;13.48;57.24
60479;BME280;46321;48.398;11.754;2024-03-02T10:27:26;95651.88;;;13.11;58.41
60479;BME280;46321;48.398;11.754;2024-03-02T10:29:51;95643.03;;;13.64;57.50
60479;BME280;46321;48.398;11.754;2024-03-02T10:32:17;95651.97;;;13.69;56.01
60479;BME280;46321;48.398;11.754;2024-03-02T10:34:44;95635.38;;;14.82;54.30
60479;BME280;46321;48.398;11.754;2024-03-02T10:37:13;95638.44;;;17.45;46.40
60479;BME280;46321;48.398;11.754;2024-03-02T10:39:40;95636.06;;;20.94;38.77
60479;BME280;46321;48.398;11.754;2024-03-02T10:42:06;95625.09;;;23.86;32.92
60479;BME280;46321;48.398;11.754;2024-03-02T10:44:32;95623.22;;;24.46;31.50
60479;BME280;46321;48.398;11.754;2024-03-02T10:47:00;95625.25;;;25.28;29.94
60479;BME280;46321;48.398;11.754;2024-03-02T10:49:28;95609.22;;;26.51;27.76
60479;BME280;46321;48.398;11.754;2024-03-02T10:51:54;95605.56;;;27.64;26.60
60479;BME280;46321;48.398;11.754;2024-03-02T10:54:19;95602.84;;;30.43;23.85
60479;BME280;46321;48.398;11.754;2024-03-02T10:56:51;95597.91;;;28.44;25.37
60479;BME280;46321;48.398;11.754;2024-03-02T10:59:33;95595.59;;;29.28;23.54
60479;BME280;46321;48.398;11.754;2024-03-02T11:01:59;95600.47;;;27.71;25.47
60479;BME280;46321;48.398;11.754;2024-03-02T11:04:29;95589.84;;;27.61;25.99
60479;BME280;46321;48.398;11.754;2024-03-02T11:07:15;95584.69;;;29.81;22.63
60479;BME280;46321;48.398;11.754;2024-03-02T11:09:51;95582.06;;;28.14;24.20
60479;BME280;46321;48.398;11.754;2024-03-02T11:12:23;95572.25;;;28.36;24.87
60479;BME280;46321;48.398;11.754;2024-03-02T11:14:51;95566.66;;;30.85;22.02
60479;BME280;46321;48.398;11.754;2024-03-02T11:17:20;95566.91;;;29.21;23.34
60479;BME280;46321;48.398;11.754;2024-03-02T11:19:46;95559.03;;;29.55;22.37
60479;BME280;46321;48.398;11.754;2024-03-02T11:22:12;95559.38;;;28.19;24.72
60479;BME280;46321;48.398;11.754;2024-03-02T11:24:38;95550.34;;;29.89;23.47
60479;BME280;46321;48.398;11.754;2024-03-02T11:27:05;95543.50;;;32.49;20.39
60479;BME280;46321;48.398;11.754;2024-03-02T11:32:16;95542.50;;;31.82;21.36
60479;BME280;46321;48.398;11.754;2024-03-02T11:34:43;95539.94;;;31.21;21.10
60479;BME280;46321;48.398;11.754;2024-03-02T11:37:20;95527.78;;;32.83;20.05
60479;BME280;46321;48.398;11.754;2024-03-02T11:39:47;95522.41;;;32.11;20.62
60479;BME280;46321;48.398;11.754;2024-03-02T11:42:14;95532.59;;;23.94;29.47
60479;BME280;46321;48.398;11.754;2024-03-02T11:44:47;95532.78;;;18.39;39.06
60479;BME280;46321;48.398;11.754;2024-03-02T11:47:15;95526.81;;;16.93;43.00
60479;BME280;46321;48.398;11.754;2024-03-02T11:49:51;95527.38;;;16.01;45.77
60479;BME280;46321;48.398;11.754;2024-03-02T11:52:20;95513.25;;;15.76;47.03
60479;BME280;46321;48.398;11.754;2024-03-02T11:54:46;95512.97;;;15.18;49.04
60479;BME280;46321;48.398;11.754;2024-03-02T11:57:13;95505.81;;;15.42;48.85
60479;BME280;46321;48.398;11.754;2024-03-02T11:59:43;95508.25;;;14.20;49.77
60479;BME280;46321;48.398;11.754;2024-03-02T12:02:17;95504.22;;;14.18;51.47
60479;BME280;46321;48.398;11.754;2024-03-02T12:04:43;95510.25;;;12.85;53.96
60479;BME280;46321;48.398;11.754;2024-03-02T12:07:10;95503.06;;;13.69;53.34
60479;BME280;46321;48.398;11.754;2024-03-02T12:09:36;95497.63;;;13.64;54.32
60479;BME280;46321;48.398;11.754;2024-03-02T12:12:08;95501.16;;;13.77;54.37
60479;BME280;46321;48.398;11.754;2024-03-02T12:14:35;95502.00;;;13.77;54.44
60479;BME280;46321;48.398;11.754;2024-03-02T12:17:01;95494.56;;;13.60;53.38
60479;BME280;46321;48.398;11.754;2024-03-02T12:19:27;95494.44;;;13.23;54.66
60479;BME280;46321;48.398;11.754;2024-03-02T12:21:55;95493.75;;;12.76;56.88
60479;BME280;46321;48.398;11.754;2024-03-02T12:24:21;95487.91;;;12.93;56.97
60479;BME280;46321;48.398;11.754;2024-03-02T12:26:48;95487.00;;;13.06;57.14
60479;BME280;46321;48.398;11.754;2024-03-02T12:29:14;95487.31;;;12.58;57.82
60479;BME280;46321;48.398;11.754;2024-03-02T12:31:40;95481.97;;;12.65;58.53
60479;BME280;46321;48.398;11.754;2024-03-02T12:34:06;95466.72;;;12.86;57.14
60479;BME280;46321;48.398;11.754;2024-03-02T12:36:37;95483.41;;;12.68;56.39
60479;BME280;46321;48.398;11.754;2024-03-02T12:39:03;95479.09;;;12.67;57.90
60479;BME280;46321;48.398;11.754;2024-03-02T12:41:28;95466.19;;;12.70;58.38
60479;BME280;46321;48.398;11.754;2024-03-02T12:43:54;95469.44;;;12.73;57.26
60479;BME280;46321;48.398;11.754;2024-03-02T12:46:20;95471.09;;;12.34;58.00
60479;BME280;46321;48.398;11.754;2024-03-02T12:48:45;95458.97;;;12.52;58.11
60479;BME280;46321;48.398;11.754;2024-03-02T12:51:10;95462.88;;;12.50;55.69
60479;BME280;46321;48.398;11.754;2024-03-02T12:53:36;95453.84;;;12.18;56.54
60479;BME280;46321;48.398;11.754;2024-03-02T12:56:01;95445.03;;;12.24;56.98
60479;BME280;46321;48.398;11.754;2024-03-02T12:58:26;95449.81;;;12.41;57.87